createdAt,value
2023-01-23T00:00:34.242Z,283.00
2023-01-23T00:01:34.218Z,284.00
2023-01-23T00:02:34.271Z,282.00
2023-01-23T00:03:34.161Z,282.00
2023-01-23T00:04:34.128Z,283.00
2023-01-23T00:05:34.099Z,281.00
2023-01-23T00:06:34.056Z,279.00
2023-01-23T00:07:34.049Z,279.00
2023-01-23T00:08:34.031Z,280.00
2023-01-23T00:09:34.026Z,280.00
2023-01-23T00:10:33.958Z,281.00
2023-01-23T00:11:34.006Z,279.00
2023-01-23T00:12:33.883Z,279.00
2023-01-23T00:13:33.859Z,278.00
2023-01-23T00:14:33.825Z,277.00
2023-01-23T00:16:33.763Z,279.00
2023-01-23T00:17:33.731Z,279.00
2023-01-23T00:18:33.703Z,279.00
2023-01-23T00:19:33.674Z,280.00
2023-01-23T00:20:33.668Z,279.00
2023-01-23T00:21:33.624Z,277.00
2023-01-23T00:22:33.597Z,277.00
2023-01-23T00:23:33.568Z,277.00
2023-01-23T00:24:33.537Z,277.00
2023-01-23T00:25:33.503Z,277.00
2023-01-23T00:26:33.480Z,279.00
2023-01-23T00:27:33.528Z,279.00
2023-01-23T00:28:33.406Z,280.00
2023-01-23T00:29:33.392Z,280.00
2023-01-23T00:30:33.482Z,279.00
2023-01-23T00:31:33.472Z,281.00
2023-01-23T00:32:33.295Z,282.00
2023-01-23T00:33:33.262Z,283.00
2023-01-23T00:34:33.225Z,285.00
2023-01-23T00:35:33.207Z,284.00
2023-01-23T00:36:33.169Z,286.00
2023-01-23T00:37:33.138Z,288.00
2023-01-23T00:38:33.101Z,287.00
2023-01-23T00:39:33.073Z,285.00
2023-01-23T00:40:33.046Z,286.00
2023-01-23T00:41:32.997Z,286.00
2023-01-23T00:42:32.963Z,283.00
2023-01-23T00:43:33.016Z,283.00
2023-01-23T00:44:32.909Z,282.00
2023-01-23T00:45:32.888Z,281.00
2023-01-23T00:46:32.864Z,281.00
2023-01-23T00:47:32.824Z,281.00
2023-01-23T00:48:32.781Z,280.00
2023-01-23T00:49:32.748Z,280.00
2023-01-23T00:50:32.718Z,281.00
2023-01-23T00:51:32.701Z,281.00
2023-01-23T00:52:32.663Z,281.00
2023-01-23T00:53:32.642Z,279.00
2023-01-23T00:54:32.622Z,279.00
2023-01-23T00:55:32.600Z,280.00
2023-01-23T00:56:32.566Z,279.00
2023-01-23T00:57:32.527Z,279.00
2023-01-23T00:58:32.506Z,278.00
2023-01-23T00:59:32.550Z,277.00
2023-01-23T01:00:32.466Z,278.00
2023-01-23T01:01:32.427Z,277.00
2023-01-23T01:02:32.392Z,277.00
2023-01-23T01:03:32.336Z,278.00
2023-01-23T01:04:32.302Z,278.00
2023-01-23T01:05:32.289Z,278.00
2023-01-23T01:06:32.245Z,278.00
2023-01-23T01:07:32.215Z,280.00
2023-01-23T01:08:32.213Z,282.00
2023-01-23T01:09:32.171Z,282.00
2023-01-23T01:10:32.138Z,281.00
2023-01-23T01:11:32.111Z,281.00
2023-01-23T01:12:32.075Z,282.00
2023-01-23T01:13:32.060Z,281.00
2023-01-23T01:14:32.029Z,279.00
2023-01-23T01:15:32.091Z,278.00
2023-01-23T01:16:32.045Z,278.00
2023-01-23T01:17:31.955Z,277.00
2023-01-23T01:18:31.935Z,277.00
2023-01-23T01:19:31.914Z,275.00
2023-01-23T01:20:31.904Z,274.00
2023-01-23T01:21:31.862Z,274.00
2023-01-23T01:22:31.830Z,275.00
2023-01-23T01:23:31.791Z,275.00
2023-01-23T01:24:31.764Z,275.00
2023-01-23T01:25:31.733Z,276.00
2023-01-23T01:26:31.720Z,273.00
2023-01-23T01:27:31.696Z,275.00
2023-01-23T01:28:31.656Z,276.00
2023-01-23T01:29:31.667Z,275.00
2023-01-23T01:30:31.598Z,277.00
2023-01-23T01:31:31.792Z,277.00
2023-01-23T01:32:31.541Z,279.00
2023-01-23T01:33:31.535Z,279.00
2023-01-23T01:34:31.498Z,280.00
2023-01-23T01:35:31.481Z,280.00
2023-01-23T01:36:31.472Z,280.00
2023-01-23T01:37:31.435Z,279.00
2023-01-23T01:38:31.411Z,279.00
2023-01-23T01:39:31.381Z,281.00
2023-01-23T01:40:31.371Z,283.00
2023-01-23T01:41:31.343Z,279.00
2023-01-23T01:42:31.325Z,281.00
2023-01-23T01:43:31.300Z,283.00
2023-01-23T01:44:31.283Z,284.00
2023-01-23T01:45:31.253Z,283.00
2023-01-23T01:46:31.285Z,282.00
2023-01-23T01:47:31.295Z,279.00
2023-01-23T01:48:31.198Z,279.00
2023-01-23T01:49:31.158Z,280.00
2023-01-23T01:50:31.138Z,279.00
2023-01-23T01:51:31.132Z,281.00
2023-01-23T01:52:31.090Z,283.00
2023-01-23T01:53:31.063Z,283.00
2023-01-23T01:54:31.046Z,284.00
2023-01-23T01:55:31.018Z,286.00
2023-01-23T01:56:31.003Z,287.00
2023-01-23T01:57:30.990Z,287.00
2023-01-23T01:58:30.959Z,286.00
2023-01-23T01:59:30.951Z,284.00
2023-01-23T02:00:30.949Z,285.00
2023-01-23T02:01:30.902Z,285.00
2023-01-23T02:02:30.885Z,285.00
2023-01-23T02:03:30.962Z,287.00
2023-01-23T02:04:30.833Z,285.00
2023-01-23T02:05:30.831Z,285.00
2023-01-23T02:06:30.802Z,286.00
2023-01-23T02:07:30.777Z,287.00
2023-01-23T02:08:30.757Z,286.00
2023-01-23T02:09:30.739Z,288.00
2023-01-23T02:10:30.702Z,286.00
2023-01-23T02:11:30.731Z,284.00
2023-01-23T02:12:30.670Z,283.00
2023-01-23T02:13:30.641Z,281.00
2023-01-23T02:14:30.616Z,283.00
2023-01-23T02:15:30.586Z,281.00
2023-01-23T02:16:30.584Z,280.00
2023-01-23T02:17:30.536Z,280.00
2023-01-23T02:18:30.514Z,282.00
2023-01-23T02:19:30.577Z,282.00
2023-01-23T02:20:30.462Z,281.00
2023-01-23T02:21:30.436Z,282.00
2023-01-23T02:22:30.417Z,283.00
2023-01-23T02:23:30.400Z,284.00
2023-01-23T02:24:30.375Z,284.00
2023-01-23T02:25:30.335Z,284.00
2023-01-23T02:26:30.319Z,287.00
2023-01-23T02:27:30.307Z,286.00
2023-01-23T02:28:30.264Z,286.00
2023-01-23T02:29:30.243Z,287.00
2023-01-23T02:30:30.214Z,285.00
2023-01-23T02:31:30.310Z,285.00
2023-01-23T02:32:30.178Z,284.00
2023-01-23T02:33:30.179Z,286.00
2023-01-23T02:34:30.131Z,284.00
2023-01-23T02:51:29.875Z,287.00
2023-01-23T03:07:29.422Z,285.00
2023-01-23T03:08:29.379Z,288.00
2023-01-23T03:09:29.358Z,289.00
2023-01-23T03:10:29.334Z,284.00
2023-01-23T03:11:29.312Z,283.00
2023-01-23T03:12:29.293Z,282.00
2023-01-23T03:13:29.277Z,284.00
2023-01-23T03:14:29.248Z,286.00
2023-01-23T03:15:29.247Z,285.00
2023-01-23T03:16:29.221Z,284.00
2023-01-23T03:17:29.214Z,284.00
2023-01-23T03:18:29.180Z,285.00
2023-01-23T03:19:29.164Z,287.00
2023-01-23T03:20:29.144Z,285.00
2023-01-23T03:21:29.117Z,285.00
2023-01-23T03:22:29.120Z,286.00
2023-01-23T03:23:29.162Z,286.00
2023-01-23T03:24:29.047Z,287.00
2023-01-23T03:25:29.025Z,287.00
2023-01-23T03:26:28.997Z,286.00
2023-01-23T03:27:28.998Z,284.00
2023-01-23T03:28:28.964Z,287.00
2023-01-23T03:29:28.944Z,288.00
2023-01-23T03:30:28.911Z,288.00
2023-01-23T03:31:28.954Z,288.00
2023-01-23T08:13:21.683Z,1067.00
2023-01-23T08:14:21.633Z,1029.00
2023-01-23T08:16:21.607Z,1033.00
2023-01-23T08:17:21.552Z,1099.00
2023-01-23T08:18:21.482Z,1130.00
2023-01-23T08:19:21.460Z,1054.00
2023-01-23T08:20:21.773Z,1095.00
2023-01-23T08:21:21.367Z,1136.00
2023-01-23T08:22:21.324Z,1121.00
2023-01-23T08:23:21.281Z,1144.00
2023-01-23T08:24:21.250Z,1154.00
2023-01-23T08:25:21.203Z,892.00
2023-01-23T08:26:21.163Z,767.00
2023-01-23T08:27:21.249Z,692.00
2023-01-23T08:28:21.099Z,653.00
2023-01-23T08:29:21.073Z,599.00
2023-01-23T08:30:21.337Z,583.00
2023-01-23T08:31:21.083Z,618.00
2023-01-23T08:32:21.007Z,559.00
2023-01-23T09:21:19.859Z,911.00
2023-01-23T09:22:19.824Z,921.00
2023-01-23T09:23:19.795Z,937.00
2023-01-23T09:24:19.760Z,945.00
2023-01-23T09:25:19.732Z,948.00
2023-01-23T09:26:20.095Z,953.00
2023-01-23T09:27:19.663Z,952.00
2023-01-23T09:28:19.629Z,959.00
2023-01-23T09:29:19.597Z,975.00
2023-01-23T09:30:19.892Z,1000.00
2023-01-23T09:31:19.691Z,1021.00
2023-01-23T09:32:19.500Z,1002.00
2023-01-23T09:33:19.472Z,921.00
2023-01-23T09:34:19.420Z,944.00
2023-01-23T09:35:19.387Z,909.00
2023-01-23T09:36:21.837Z,836.00
2023-01-23T09:37:20.315Z,831.00
2023-01-23T09:38:19.292Z,821.00
2023-01-23T09:39:19.247Z,826.00
2023-01-23T09:40:19.540Z,852.00
2023-01-23T09:41:19.212Z,860.00
2023-01-23T09:42:19.149Z,867.00
2023-01-23T09:43:19.112Z,871.00
2023-01-23T09:44:19.067Z,872.00
2023-01-23T09:45:19.027Z,871.00
2023-01-23T09:46:19.027Z,867.00
2023-01-23T09:47:19.062Z,863.00
2023-01-23T09:48:18.934Z,859.00
2023-01-23T09:49:18.908Z,856.00
2023-01-23T13:15:14.511Z,688.00
2023-01-23T13:16:11.151Z,682.00
2023-01-23T13:17:11.097Z,677.00
2023-01-23T13:18:11.062Z,672.00
2023-01-23T13:19:11.042Z,666.00
2023-01-23T13:20:10.996Z,659.00
2023-01-23T13:21:10.963Z,652.00
2023-01-23T13:22:13.453Z,651.00
2023-01-23T13:23:11.978Z,647.00
2023-01-23T13:24:10.865Z,641.00
2023-01-23T13:25:10.822Z,638.00
2023-01-23T13:26:10.808Z,631.00
2023-01-23T13:27:10.759Z,629.00
2023-01-23T13:28:10.720Z,624.00
2023-01-23T13:29:10.690Z,621.00
2023-01-23T13:30:10.665Z,618.00
2023-01-23T13:31:10.720Z,611.00
2023-01-23T13:32:10.717Z,606.00
2023-01-23T13:33:10.547Z,603.00
2023-01-23T13:34:16.047Z,600.00
2023-01-23T13:35:11.500Z,598.00
2023-01-23T13:36:10.464Z,595.00
2023-01-23T13:37:10.437Z,594.00
2023-01-23T13:38:10.401Z,595.00
2023-01-23T13:39:10.366Z,594.00
2023-01-23T13:40:10.349Z,592.00
2023-01-23T13:41:10.323Z,588.00
2023-01-23T13:42:10.278Z,582.00
2023-01-23T13:43:10.244Z,580.00
2023-01-23T13:44:10.886Z,577.00
2023-01-23T13:45:10.182Z,573.00
2023-01-23T13:46:10.184Z,569.00
2023-01-23T13:47:10.223Z,564.00
2023-01-23T13:48:10.086Z,564.00
2023-01-23T13:49:10.042Z,565.00
2023-01-23T13:50:10.007Z,564.00
2023-01-23T13:51:09.976Z,562.00
2023-01-23T13:52:09.954Z,562.00
2023-01-23T13:53:09.893Z,562.00
2023-01-23T13:54:09.915Z,558.00
2023-01-23T13:55:09.829Z,555.00
2023-01-23T13:56:09.815Z,553.00
2023-01-23T13:57:09.769Z,551.00
2023-01-23T13:58:09.739Z,550.00
2023-01-23T13:59:09.708Z,547.00
2023-01-23T14:00:09.664Z,547.00
2023-01-23T14:01:09.630Z,548.00
2023-01-23T14:02:09.600Z,546.00
2023-01-23T14:03:09.707Z,545.00
2023-01-23T14:04:09.538Z,541.00
2023-01-23T14:05:09.489Z,539.00
2023-01-23T14:06:09.475Z,537.00
2023-01-23T14:07:09.437Z,536.00
2023-01-23T14:08:09.395Z,537.00
2023-01-23T14:09:09.382Z,536.00
2023-01-23T14:10:09.327Z,533.00
2023-01-23T14:11:09.298Z,533.00
2023-01-23T14:12:09.279Z,533.00
2023-01-23T14:13:09.231Z,530.00
2023-01-23T14:14:09.188Z,528.00
2023-01-23T14:15:09.153Z,528.00
2023-01-23T14:16:09.122Z,524.00
2023-01-23T14:17:09.109Z,524.00
2023-01-23T14:18:09.066Z,523.00
2023-01-23T14:19:09.136Z,523.00
2023-01-23T14:20:08.995Z,523.00
2023-01-23T14:21:08.968Z,522.00
2023-01-23T14:22:08.935Z,522.00
2023-01-23T14:23:08.942Z,523.00
2023-01-23T16:46:04.244Z,425.00
2023-01-23T16:47:04.213Z,426.00
2023-01-23T16:48:04.176Z,430.00
2023-01-23T16:49:04.150Z,431.00
2023-01-23T16:50:04.115Z,429.00
2023-01-23T16:51:04.113Z,427.00
2023-01-23T16:52:04.068Z,426.00
2023-01-23T16:53:04.046Z,422.00
2023-01-23T16:54:17.656Z,417.00
2023-01-23T16:55:04.984Z,420.00
2023-01-23T16:56:03.948Z,422.00
2023-01-23T16:57:03.921Z,422.00
2023-01-23T16:58:03.888Z,422.00
2023-01-23T16:59:03.959Z,423.00
2023-01-23T17:00:03.831Z,423.00
2023-01-23T17:01:03.856Z,421.00
2023-01-23T17:02:03.799Z,423.00
2023-01-23T17:03:03.755Z,425.00
2023-01-23T17:04:03.720Z,423.00
2023-01-23T17:05:03.719Z,425.00
2023-01-23T17:06:03.731Z,426.00
2023-01-23T17:07:03.633Z,425.00
2023-01-23T17:08:03.620Z,425.00
2023-01-23T17:09:03.625Z,422.00
2023-01-23T17:10:03.564Z,422.00
2023-01-23T17:11:03.535Z,418.00
2023-01-23T17:12:03.521Z,418.00
2023-01-23T17:13:03.475Z,417.00
2023-01-23T17:14:03.437Z,415.00
2023-01-23T17:15:03.508Z,414.00
2023-01-23T17:16:03.546Z,413.00
2023-01-23T17:17:03.427Z,412.00
2023-01-23T17:18:03.329Z,412.00
2023-01-23T17:19:03.301Z,409.00
2023-01-23T17:20:03.266Z,409.00
2023-01-23T17:21:03.245Z,410.00
2023-01-23T17:22:03.204Z,408.00
2023-01-23T17:23:03.172Z,407.00
2023-01-23T17:24:03.201Z,405.00
2023-01-23T17:25:03.132Z,408.00
2023-01-23T17:26:03.090Z,409.00
2023-01-23T17:27:03.198Z,408.00
2023-01-23T17:28:12.475Z,409.00
2023-01-23T17:29:04.022Z,409.00
2023-01-23T17:30:02.982Z,410.00
2023-01-23T17:31:03.085Z,409.00
2023-01-23T17:32:02.981Z,409.00
2023-01-23T17:33:02.908Z,411.00
2023-01-23T17:34:02.883Z,412.00
2023-01-23T17:35:03.304Z,415.00
2023-01-23T17:36:02.825Z,416.00
2023-01-23T17:37:02.826Z,418.00
2023-01-23T17:38:02.777Z,416.00
2023-01-23T17:39:02.752Z,412.00
2023-01-23T17:40:02.735Z,411.00
2023-01-23T17:41:02.698Z,406.00
2023-01-23T17:42:02.670Z,406.00
2023-01-23T17:43:02.660Z,405.00
2023-01-23T17:44:02.616Z,404.00
2023-01-23T17:45:02.591Z,404.00
2023-01-23T17:46:02.690Z,410.00
2023-01-23T17:47:02.649Z,410.00
2023-01-23T17:48:02.576Z,409.00
2023-01-23T17:49:02.500Z,410.00
2023-01-23T17:50:02.465Z,407.00
2023-01-23T17:51:02.447Z,408.00
2023-01-23T17:52:02.403Z,408.00
2023-01-23T17:53:02.380Z,407.00
2023-01-23T17:54:02.347Z,405.00
2023-01-23T17:55:02.323Z,406.00
2023-01-23T17:56:02.294Z,407.00
2023-01-23T17:57:02.265Z,405.00
2023-01-23T17:58:02.220Z,405.00
2023-01-23T17:59:02.198Z,402.00
2023-01-23T18:00:02.152Z,400.00
2023-01-23T18:01:02.174Z,401.00
2023-01-23T18:02:02.186Z,402.00
2023-01-23T18:03:02.152Z,405.00
2023-01-23T18:04:02.017Z,405.00
2023-01-23T18:05:01.976Z,406.00
2023-01-23T18:06:01.939Z,405.00
2023-01-23T18:07:01.913Z,405.00
2023-01-23T18:08:01.877Z,405.00
2023-01-23T18:09:01.849Z,404.00
2023-01-23T18:10:01.824Z,404.00
2023-01-23T18:11:01.794Z,403.00
2023-01-23T18:12:01.760Z,402.00
2023-01-23T18:13:01.730Z,403.00
2023-01-23T18:14:01.711Z,404.00
2023-01-23T18:15:01.689Z,405.00
2023-01-23T18:16:01.679Z,402.00
2023-01-23T18:17:01.624Z,400.00
2023-01-23T18:18:01.588Z,401.00
2023-01-23T18:19:01.671Z,401.00
2023-01-23T18:20:01.594Z,399.00
2023-01-23T18:21:01.523Z,397.00
2023-01-23T18:22:01.481Z,398.00
2023-01-23T18:23:01.465Z,399.00
2023-01-23T18:24:01.465Z,398.00
2023-01-23T18:25:01.433Z,398.00
2023-01-23T18:26:01.381Z,395.00
2023-01-23T18:27:01.379Z,395.00
2023-01-23T18:28:01.324Z,395.00
2023-01-23T18:29:01.300Z,396.00
2023-01-23T18:30:01.264Z,397.00
2023-01-23T18:31:01.250Z,398.00
2023-01-23T18:32:01.305Z,398.00
2023-01-23T18:33:01.173Z,397.00
2023-01-23T18:34:01.147Z,395.00
2023-01-23T18:35:01.209Z,393.00
2023-01-23T18:36:01.091Z,393.00
2023-01-23T18:37:01.081Z,396.00
2023-01-23T18:38:01.020Z,396.00
2023-01-23T18:39:01.002Z,397.00
2023-01-23T18:40:00.981Z,396.00
2023-01-23T18:41:00.958Z,396.00
2023-01-23T18:42:00.940Z,396.00
2023-01-23T18:43:00.901Z,394.00
2023-01-23T18:44:00.857Z,395.00
2023-01-23T18:45:00.838Z,397.00
2023-01-23T18:46:00.860Z,396.00
2023-01-23T18:47:00.802Z,396.00
2023-01-23T18:48:00.747Z,398.00
2023-01-23T18:49:00.735Z,396.00
2023-01-23T18:50:00.687Z,395.00
2023-01-23T18:51:00.742Z,394.00
2023-01-23T18:52:00.654Z,391.00
2023-01-23T18:53:00.612Z,389.00
2023-01-23T18:54:00.572Z,389.00
2023-01-23T18:55:00.562Z,390.00
2023-01-23T18:56:00.520Z,389.00
2023-01-23T18:57:00.483Z,388.00
2023-01-23T18:58:00.454Z,388.00
2023-01-23T18:59:10.687Z,387.00
2023-01-23T19:00:01.389Z,389.00
2023-01-23T19:01:00.394Z,390.00
2023-01-23T19:02:00.385Z,390.00
2023-01-23T19:03:00.300Z,388.00
2023-01-23T19:04:00.253Z,389.00
2023-01-23T19:05:00.235Z,389.00
2023-01-23T19:06:00.201Z,387.00
2023-01-23T19:07:00.267Z,388.00
2023-01-23T19:08:00.135Z,392.00
2023-01-23T19:09:00.115Z,394.00
2023-01-23T19:10:00.077Z,395.00
2023-01-23T19:11:00.050Z,396.00
2023-01-23T19:12:00.032Z,397.00
2023-01-23T19:13:00.015Z,394.00
2023-01-23T19:14:00.003Z,396.00
2023-01-23T19:14:59.947Z,394.00
2023-01-23T19:15:59.939Z,397.00
2023-01-23T19:16:59.897Z,396.00
2023-01-23T19:17:59.860Z,395.00
2023-01-23T19:19:14.176Z,391.00
2023-01-23T19:20:00.802Z,389.00
2023-01-23T19:20:59.771Z,390.00
2023-01-23T19:21:59.739Z,388.00
2023-01-23T19:22:59.794Z,389.00
2023-01-23T19:23:59.726Z,389.00
2023-01-23T19:24:59.647Z,392.00
2023-01-23T19:25:59.607Z,395.00
2023-01-23T19:26:59.677Z,397.00
2023-01-23T19:27:59.551Z,396.00
2023-01-23T19:28:59.973Z,397.00
2023-01-23T19:29:59.524Z,396.00
2023-01-23T19:30:59.555Z,395.00
2023-01-23T19:32:05.264Z,395.00
2023-01-23T19:33:59.366Z,396.00
2023-01-23T19:35:13.107Z,398.00
2023-01-23T19:36:00.310Z,397.00
2023-01-23T19:36:59.279Z,398.00
2023-01-23T19:37:59.237Z,399.00
2023-01-23T19:38:59.290Z,398.00
2023-01-23T19:39:59.167Z,395.00
2023-01-23T19:40:59.157Z,393.00
2023-01-23T19:41:59.133Z,392.00
2023-01-23T19:43:13.722Z,391.00
2023-01-23T19:44:59.061Z,388.00
2023-01-23T19:45:58.996Z,388.00
2023-01-23T19:46:59.004Z,387.00
2023-01-23T19:47:58.924Z,386.00
